Time;durP1;ratioP1;P1;durP2;ratioP2;P2;SDS_P1;SDS_P2;PMS_P1;PMS_P2;Temp;Humidity;BMP_temperature;BMP_pressure;BME280_temperature;BME280_humidity;BME280_pressure;Samples;Min_cycle;Max_cycle;Signal;HPM_P1;HPM_P2
2023/07/07 00:00:26;;;;;;;6.90;5.03;;;;;;;;;;5045339;28;20194;-64
2023/07/07 00:02:54;;;;;;;6.43;4.70;;;;;;;;;;5039778;28;20566;-64
2023/07/07 00:05:21;;;;;;;7.93;5.20;;;;;;;;;;5039504;28;20380;-64
2023/07/07 00:07:48;;;;;;;5.40;4.83;;;;;;;;;;5036106;28;20940;-64
2023/07/07 00:10:16;;;;;;;5.43;4.93;;;;;;;;;;5045182;28;20202;-64
2023/07/07 00:12:43;;;;;;;5.67;4.50;;;;;;;;;;5045535;28;20198;-64
2023/07/07 00:15:11;;;;;;;4.70;4.30;;;;;;;;;;5039953;28;20225;-64
2023/07/07 00:17:41;;;;;;;4.57;4.17;;;;;;;;;;5045184;28;20206;-64
2023/07/07 00:20:13;;;;;;;5.20;4.37;;;;;;;;;;5045796;28;20210;-64
2023/07/07 00:22:41;;;;;;;5.50;4.60;;;;;;;;;;5042184;28;20248;-64
2023/07/07 00:25:08;;;;;;;5.27;4.50;;;;;;;;;;5037999;28;20252;-64
2023/07/07 00:27:37;;;;;;;5.37;4.13;;;;;;;;;;5039052;28;20285;-64
2023/07/07 00:30:04;;;;;;;6.10;4.73;;;;;;;;;;5033098;28;20214;-65
2023/07/07 00:32:32;;;;;;;5.33;4.83;;;;;;;;;;5038665;28;20378;-64
2023/07/07 00:34:59;;;;;;;5.67;4.43;;;;;;;;;;5042386;28;20314;-64
2023/07/07 00:37:26;;;;;;;5.10;4.60;;;;;;;;;;5019318;28;20279;-64
2023/07/07 00:39:54;;;;;;;5.30;4.80;;;;;;;;;;5041084;28;20252;-64
2023/07/07 00:42:21;;;;;;;6.50;4.80;;;;;;;;;;5039106;28;20206;-64
2023/07/07 00:45:07;;;;;;;5.70;4.67;;;;;;;;;;5046186;28;20571;-64
2023/07/07 00:47:37;;;;;;;5.60;4.67;;;;;;;;;;5031625;28;20206;-64
2023/07/07 00:50:06;;;;;;;6.87;5.03;;;;;;;;;;5032538;28;20961;-64
2023/07/07 00:52:34;;;;;;;6.07;5.30;;;;;;;;;;5040308;28;20753;-64
2023/07/07 00:55:01;;;;;;;5.93;5.20;;;;;;;;;;5041865;28;20648;-64
2023/07/07 00:57:28;;;;;;;5.77;5.17;;;;;;;;;;5024271;28;20604;-64
2023/07/07 00:59:56;;;;;;;6.63;4.93;;;;;;;;;;5040940;28;20357;-63
2023/07/07 01:02:26;;;;;;;5.90;5.00;;;;;;;;;;5035151;28;20222;-65
2023/07/07 01:04:56;;;;;;;5.70;4.70;;;;;;;;;;5034160;28;20237;-63
2023/07/07 01:07:26;;;;;;;6.30;4.97;;;;;;;;;;5046548;28;20202;-63
2023/07/07 01:09:54;;;;;;;7.00;4.43;;;;;;;;;;5040323;28;20818;-65
2023/07/07 01:12:21;;;;;;;5.70;4.80;;;;;;;;;;5042620;28;20316;-65
2023/07/07 01:14:51;;;;;;;7.37;4.70;;;;;;;;;;5036258;28;20239;-65
2023/07/07 01:17:39;;;;;;;8.20;5.47;;;;;;;;;;5042820;28;20209;-65
2023/07/07 01:20:21;;;;;;;6.33;4.93;;;;;;;;;;5042768;28;20680;-64
2023/07/07 01:23:04;;;;;;;5.50;4.90;;;;;;;;;;5018155;28;20279;-63
2023/07/07 01:25:38;;;;;;;6.30;4.90;;;;;;;;;;5016568;28;20226;-64
2023/07/07 01:28:21;;;;;;;6.73;5.03;;;;;;;;;;5020352;28;20252;-65
2023/07/07 01:30:51;;;;;;;6.10;4.90;;;;;;;;;;5036601;28;20265;-65
2023/07/07 01:33:20;;;;;;;5.50;4.87;;;;;;;;;;5027350;28;20202;-66
2023/07/07 01:35:48;;;;;;;5.87;4.90;;;;;;;;;;5021385;28;20230;-64
2023/07/07 01:38:33;;;;;;;6.07;4.77;;;;;;;;;;5042106;28;20582;-63
2023/07/07 01:41:07;;;;;;;5.70;4.83;;;;;;;;;;5019668;28;20213;-66
2023/07/07 01:43:42;;;;;;;5.20;4.67;;;;;;;;;;5037780;28;20202;-66
2023/07/07 01:46:45;;;;;;;5.23;4.43;;;;;;;;;;5042785;28;20727;-66
2023/07/07 01:49:17;;;;;;;6.90;4.90;;;;;;;;;;4959473;28;20211;-63
2023/07/07 01:51:51;;;;;;;7.27;5.83;;;;;;;;;;5027713;28;20222;-65
2023/07/07 01:54:19;;;;;;;6.60;4.60;;;;;;;;;;5020981;28;20608;-65
2023/07/07 01:56:47;;;;;;;6.20;4.50;;;;;;;;;;5040062;28;20225;-65
2023/07/07 01:59:15;;;;;;;6.53;4.50;;;;;;;;;;5045739;28;20202;-64
2023/07/07 02:01:43;;;;;;;6.63;4.67;;;;;;;;;;5034502;28;20211;-63
2023/07/07 02:04:11;;;;;;;5.50;4.87;;;;;;;;;;5043178;28;20213;-65
2023/07/07 02:06:38;;;;;;;5.53;4.97;;;;;;;;;;5038041;28;20202;-65
2023/07/07 02:09:06;;;;;;;6.57;4.90;;;;;;;;;;5040012;28;20218;-65
2023/07/07 02:11:34;;;;;;;6.93;4.97;;;;;;;;;;5035900;28;20680;-66
2023/07/07 02:14:01;;;;;;;5.27;4.63;;;;;;;;;;5032687;28;20555;-65
2023/07/07 02:16:29;;;;;;;6.27;4.67;;;;;;;;;;5036759;28;20234;-65
2023/07/07 02:18:56;;;;;;;5.23;4.73;;;;;;;;;;5047336;28;20256;-65
2023/07/07 02:21:24;;;;;;;7.20;4.57;;;;;;;;;;5036146;28;20285;-65
2023/07/07 02:23:51;;;;;;;5.43;4.70;;;;;;;;;;5037112;28;20203;-65
2023/07/07 02:26:18;;;;;;;5.97;4.73;;;;;;;;;;5044290;28;20233;-65
2023/07/07 02:28:46;;;;;;;5.90;4.87;;;;;;;;;;5044738;28;20276;-65
2023/07/07 02:31:14;;;;;;;5.40;4.60;;;;;;;;;;5034908;28;20283;-64
2023/07/07 02:33:41;;;;;;;6.33;4.50;;;;;;;;;;5034910;28;20289;-65
2023/07/07 02:36:09;;;;;;;5.63;4.60;;;;;;;;;;5036938;28;20285;-64
2023/07/07 02:38:36;;;;;;;4.53;4.13;;;;;;;;;;5045269;28;20198;-65
2023/07/07 02:41:04;;;;;;;7.40;4.90;;;;;;;;;;5049205;28;20583;-65
2023/07/07 02:43:31;;;;;;;5.47;4.50;;;;;;;;;;5041897;28;20210;-65
2023/07/07 02:45:59;;;;;;;5.50;4.77;;;;;;;;;;5038572;28;20397;-65
2023/07/07 02:48:26;;;;;;;5.57;5.03;;;;;;;;;;5046294;28;20199;-65
2023/07/07 02:51:03;;;;;;;5.87;4.50;;;;;;;;;;5026572;28;20252;-65
2023/07/07 02:53:35;;;;;;;5.37;4.60;;;;;;;;;;5013488;28;20206;-62
2023/07/07 02:56:04;;;;;;;6.87;5.30;;;;;;;;;;5035558;28;20665;-65
2023/07/07 02:58:31;;;;;;;5.97;4.97;;;;;;;;;;5026271;28;20201;-64
2023/07/07 03:01:09;;;;;;;6.37;5.17;;;;;;;;;;5042981;28;20240;-65
2023/07/07 03:03:41;;;;;;;6.47;4.80;;;;;;;;;;5043029;28;20234;-65
2023/07/07 03:06:11;;;;;;;6.30;4.70;;;;;;;;;;5043349;28;20257;-63
2023/07/07 03:08:39;;;;;;;5.67;4.67;;;;;;;;;;5046618;28;20202;-64
2023/07/07 03:11:07;;;;;;;6.03;4.43;;;;;;;;;;5029027;28;20618;-65
2023/07/07 03:13:34;;;;;;;6.57;5.50;;;;;;;;;;5048374;28;20209;-65
2023/07/07 03:16:09;;;;;;;5.53;4.87;;;;;;;;;;5019737;28;20236;-64
2023/07/07 03:18:36;;;;;;;6.03;4.73;;;;;;;;;;5042041;28;20318;-64
2023/07/07 03:21:04;;;;;;;8.50;5.03;;;;;;;;;;5021437;28;20206;-65
2023/07/07 03:23:31;;;;;;;5.93;5.20;;;;;;;;;;5038946;28;20257;-65
2023/07/07 03:26:11;;;;;;;5.97;4.63;;;;;;;;;;5038585;28;20242;-65
2023/07/07 03:28:39;;;;;;;6.40;4.80;;;;;;;;;;5032903;28;20211;-65
2023/07/07 03:31:10;;;;;;;5.50;4.70;;;;;;;;;;5015302;28;20206;-65
2023/07/07 03:33:39;;;;;;;6.83;4.90;;;;;;;;;;5039800;28;20213;-64
2023/07/07 03:36:08;;;;;;;8.10;4.93;;;;;;;;;;5030074;28;20226;-65
2023/07/07 03:38:35;;;;;;;7.37;5.07;;;;;;;;;;5044035;28;20269;-65
2023/07/07 03:41:02;;;;;;;5.47;4.63;;;;;;;;;;5038685;28;20198;-65
2023/07/07 03:43:33;;;;;;;4.90;4.40;;;;;;;;;;5043185;28;20214;-65
2023/07/07 03:46:01;;;;;;;7.47;5.03;;;;;;;;;;5018260;28;20226;-65
2023/07/07 03:48:28;;;;;;;6.20;4.90;;;;;;;;;;5041455;28;20202;-65
2023/07/07 03:51:02;;;;;;;5.73;4.60;;;;;;;;;;5042875;28;20213;-65
2023/07/07 03:53:31;;;;;;;5.13;4.33;;;;;;;;;;5033045;28;20226;-65
2023/07/07 03:55:58;;;;;;;5.87;5.07;;;;;;;;;;5042616;28;20485;-64
2023/07/07 03:58:27;;;;;;;9.77;5.10;;;;;;;;;;5031591;28;20206;-65
2023/07/07 04:00:54;;;;;;;6.90;5.50;;;;;;;;;;5039507;28;20202;-66
2023/07/07 04:03:24;;;;;;;5.73;4.80;;;;;;;;;;5021504;28;20315;-65
2023/07/07 04:05:51;;;;;;;6.20;5.10;;;;;;;;;;5037552;28;20226;-65
2023/07/07 04:08:22;;;;;;;5.20;4.63;;;;;;;;;;5045597;28;20700;-65
2023/07/07 04:11:03;;;;;;;5.60;5.00;;;;;;;;;;5035987;28;20720;-65
2023/07/07 04:13:31;;;;;;;6.83;5.40;;;;;;;;;;5026098;28;20227;-65
2023/07/07 04:16:11;;;;;;;7.17;4.97;;;;;;;;;;5039801;28;20740;-64
2023/07/07 04:18:39;;;;;;;6.70;4.80;;;;;;;;;;5045241;28;20210;-65
2023/07/07 04:21:09;;;;;;;6.50;4.97;;;;;;;;;;5023712;28;20206;-65
2023/07/07 04:23:37;;;;;;;11.77;5.00;;;;;;;;;;5039565;28;20673;-65
2023/07/07 04:26:05;;;;;;;7.33;5.00;;;;;;;;;;5042216;28;20276;-63
2023/07/07 04:28:35;;;;;;;7.20;5.20;;;;;;;;;;5024597;28;20621;-65
2023/07/07 04:31:03;;;;;;;6.50;5.20;;;;;;;;;;5034806;28;20234;-65
2023/07/07 04:33:31;;;;;;;5.67;4.83;;;;;;;;;;5025639;28;20663;-65
2023/07/07 04:36:00;;;;;;;5.77;5.03;;;;;;;;;;5021468;28;20229;-65
2023/07/07 04:38:33;;;;;;;6.43;5.17;;;;;;;;;;5024023;28;20241;-65
2023/07/07 04:41:13;;;;;;;6.57;4.80;;;;;;;;;;5032867;28;20207;-65
2023/07/07 04:43:48;;;;;;;5.60;4.87;;;;;;;;;;5031753;28;20213;-65
2023/07/07 04:46:17;;;;;;;5.07;4.57;;;;;;;;;;5029357;28;20646;-64
2023/07/07 04:48:45;;;;;;;5.70;5.10;;;;;;;;;;5014939;28;20205;-65
2023/07/07 04:51:12;;;;;;;6.03;4.80;;;;;;;;;;5036313;28;20217;-64
2023/07/07 04:53:41;;;;;;;8.80;5.67;;;;;;;;;;5021494;28;20272;-64
2023/07/07 04:56:10;;;;;;;5.67;5.07;;;;;;;;;;5039997;28;20218;-64
2023/07/07 04:58:39;;;;;;;6.87;5.13;;;;;;;;;;5029490;28;20206;-63
2023/07/07 05:01:06;;;;;;;6.67;5.40;;;;;;;;;;5019040;28;20213;-64
2023/07/07 05:03:34;;;;;;;6.53;5.17;;;;;;;;;;5022470;28;20299;-69
2023/07/07 05:06:03;;;;;;;5.20;4.53;;;;;;;;;;5017650;28;20233;-68
2023/07/07 05:08:35;;;;;;;5.40;4.87;;;;;;;;;;5019051;28;20310;-63
2023/07/07 05:11:03;;;;;;;5.63;4.87;;;;;;;;;;5017445;28;20292;-64
2023/07/07 05:13:31;;;;;;;5.90;5.17;;;;;;;;;;5036253;28;20329;-64
2023/07/07 05:16:00;;;;;;;6.23;5.17;;;;;;;;;;5033521;28;20277;-68
2023/07/07 05:18:29;;;;;;;6.70;4.90;;;;;;;;;;5028113;28;20198;-67
2023/07/07 05:20:57;;;;;;;7.10;5.37;;;;;;;;;;5034460;28;21494;-67
2023/07/07 05:23:26;;;;;;;8.20;5.47;;;;;;;;;;5024963;28;20261;-63
2023/07/07 05:25:54;;;;;;;6.30;5.13;;;;;;;;;;5035912;28;20230;-63
2023/07/07 05:28:22;;;;;;;6.53;5.77;;;;;;;;;;5030876;28;20664;-64
2023/07/07 05:30:50;;;;;;;7.20;4.60;;;;;;;;;;5019035;28;20202;-64
2023/07/07 05:33:19;;;;;;;8.32;4.95;;;;;;;;;;5035789;28;20222;-63
2023/07/07 05:35:51;;;;;;;6.00;4.50;;;;;;;;;;5045270;28;20305;-68
2023/07/07 05:38:21;;;;;;;6.10;4.53;;;;;;;;;;5030559;28;20202;-64
2023/07/07 05:40:49;;;;;;;5.43;4.15;;;;;;;;;;5042382;28;20296;-67
2023/07/07 05:43:18;;;;;;;4.85;4.05;;;;;;;;;;5047756;28;20203;-64
2023/07/07 05:45:47;;;;;;;4.53;4.05;;;;;;;;;;5047458;28;20233;-65
2023/07/07 05:48:15;;;;;;;5.00;4.47;;;;;;;;;;5015690;28;20648;-64
2023/07/07 05:50:45;;;;;;;8.60;4.80;;;;;;;;;;5040488;28;20210;-64
2023/07/07 05:53:13;;;;;;;8.80;4.57;;;;;;;;;;5036208;28;20230;-65
2023/07/07 05:55:46;;;;;;;5.82;4.90;;;;;;;;;;5039492;28;20283;-63
2023/07/07 05:58:14;;;;;;;7.72;4.38;;;;;;;;;;5044665;28;20281;-68
2023/07/07 06:00:42;;;;;;;5.22;4.72;;;;;;;;;;5044712;28;20609;-64
2023/07/07 06:03:10;;;;;;;7.78;4.68;;;;;;;;;;5043060;28;20567;-63
2023/07/07 06:05:38;;;;;;;5.78;4.38;;;;;;;;;;5044404;28;20522;-64
2023/07/07 06:08:06;;;;;;;5.63;4.57;;;;;;;;;;5044168;28;20214;-62
2023/07/07 06:10:34;;;;;;;4.85;4.30;;;;;;;;;;5029090;28;20677;-64
2023/07/07 06:13:02;;;;;;;6.35;4.47;;;;;;;;;;5042709;28;20279;-67
2023/07/07 06:15:30;;;;;;;5.57;4.28;;;;;;;;;;5042742;28;20725;-65
2023/07/07 06:17:59;;;;;;;9.00;4.97;;;;;;;;;;5043093;28;20252;-63
2023/07/07 06:20:28;;;;;;;9.45;4.57;;;;;;;;;;5042016;28;20203;-63
2023/07/07 06:22:57;;;;;;;8.90;4.97;;;;;;;;;;5044746;28;20253;-66
2023/07/07 06:25:24;;;;;;;9.35;5.20;;;;;;;;;;5037083;28;20230;-64
2023/07/07 06:27:52;;;;;;;9.48;4.60;;;;;;;;;;5023375;28;20189;-62
2023/07/07 06:30:21;;;;;;;7.60;4.97;;;;;;;;;;5048783;28;20244;-64
2023/07/07 06:32:49;;;;;;;9.88;5.22;;;;;;;;;;5041580;28;20237;-63
2023/07/07 06:35:16;;;;;;;7.85;4.00;;;;;;;;;;5038865;28;20305;-66
2023/07/07 06:37:44;;;;;;;5.22;4.53;;;;;;;;;;5036932;28;20705;-66
2023/07/07 06:40:13;;;;;;;6.82;4.25;;;;;;;;;;5042093;28;20296;-63
2023/07/07 06:42:40;;;;;;;4.53;4.13;;;;;;;;;;5038651;28;20210;-65
2023/07/07 06:45:08;;;;;;;5.28;3.92;;;;;;;;;;5029177;28;20596;-63
2023/07/07 06:47:35;;;;;;;4.55;3.50;;;;;;;;;;5033558;28;20206;-66
2023/07/07 06:50:03;;;;;;;4.95;3.85;;;;;;;;;;5047362;28;20205;-63
2023/07/07 06:52:31;;;;;;;4.25;3.78;;;;;;;;;;5045826;28;20234;-64
2023/07/07 06:55:02;;;;;;;6.03;3.75;;;;;;;;;;5045787;28;20253;-64
2023/07/07 06:57:32;;;;;;;4.47;4.07;;;;;;;;;;5023258;28;20940;-64
2023/07/07 07:00:00;;;;;;;5.28;4.45;;;;;;;;;;5024900;28;20202;-64
2023/07/07 07:02:28;;;;;;;4.90;3.75;;;;;;;;;;5020475;28;20199;-66
2023/07/07 07:04:56;;;;;;;5.13;4.13;;;;;;;;;;5030378;28;20754;-67
2023/07/07 07:07:25;;;;;;;4.65;3.88;;;;;;;;;;5019338;28;20202;-64
2023/07/07 07:09:56;;;;;;;6.13;4.25;;;;;;;;;;5021504;28;20252;-65
2023/07/07 07:12:24;;;;;;;4.88;3.67;;;;;;;;;;5038841;28;20213;-65
2023/07/07 07:14:52;;;;;;;4.65;3.72;;;;;;;;;;5022149;28;20225;-63
2023/07/07 07:17:22;;;;;;;7.07;3.90;;;;;;;;;;5028126;28;20199;-64
2023/07/07 07:19:49;;;;;;;4.50;3.97;;;;;;;;;;5034405;28;20241;-63
2023/07/07 07:22:18;;;;;;;5.07;3.88;;;;;;;;;;5038649;28;20574;-64
2023/07/07 07:24:45;;;;;;;5.63;3.90;;;;;;;;;;5038482;28;20241;-63
2023/07/07 07:27:13;;;;;;;3.67;3.30;;;;;;;;;;5027218;28;20308;-62
2023/07/07 07:29:43;;;;;;;7.13;4.38;;;;;;;;;;5032834;28;20661;-65
2023/07/07 07:32:12;;;;;;;5.78;4.00;;;;;;;;;;5042235;28;20250;-64
2023/07/07 07:34:40;;;;;;;4.85;4.30;;;;;;;;;;5019968;28;20280;-65
2023/07/07 07:37:08;;;;;;;5.20;3.80;;;;;;;;;;5018723;28;20206;-66
2023/07/07 07:39:36;;;;;;;5.63;4.10;;;;;;;;;;5040074;28;20207;-65
2023/07/07 07:42:04;;;;;;;7.85;3.83;;;;;;;;;;5008490;28;20234;-66
2023/07/07 07:44:32;;;;;;;5.65;4.03;;;;;;;;;;5016449;28;20715;-65
2023/07/07 07:47:00;;;;;;;4.40;4.00;;;;;;;;;;5008850;28;20281;-65
2023/07/07 07:49:29;;;;;;;4.30;3.90;;;;;;;;;;5026268;28;20259;-65
2023/07/07 07:51:57;;;;;;;4.93;4.05;;;;;;;;;;5046892;28;20210;-66
2023/07/07 07:54:25;;;;;;;6.10;4.35;;;;;;;;;;5035767;28;20228;-65
2023/07/07 07:56:53;;;;;;;5.43;4.47;;;;;;;;;;5034769;28;20402;-64
2023/07/07 07:59:20;;;;;;;6.18;4.13;;;;;;;;;;5035610;28;20548;-62
2023/07/07 08:01:48;;;;;;;6.38;4.40;;;;;;;;;;5033824;28;20198;-66
2023/07/07 08:04:17;;;;;;;5.40;4.43;;;;;;;;;;5041507;28;20230;-64
2023/07/07 08:06:44;;;;;;;5.95;4.47;;;;;;;;;;5023203;28;20398;-66
2023/07/07 08:09:12;;;;;;;4.53;4.13;;;;;;;;;;5036805;28;20221;-66
2023/07/07 08:11:42;;;;;;;4.60;4.20;;;;;;;;;;5032642;28;20202;-66
2023/07/07 08:14:11;;;;;;;7.00;4.30;;;;;;;;;;5045072;28;20254;-65
2023/07/07 08:16:38;;;;;;;5.47;4.78;;;;;;;;;;5039440;28;20290;-63
2023/07/07 08:19:06;;;;;;;4.97;4.47;;;;;;;;;;5039671;28;20199;-66
2023/07/07 08:21:35;;;;;;;5.43;4.93;;;;;;;;;;5048710;28;20656;-65
2023/07/07 08:24:03;;;;;;;4.90;4.40;;;;;;;;;;5031725;28;20575;-65
2023/07/07 08:26:30;;;;;;;5.65;4.20;;;;;;;;;;5061996;28;20241;-63
2023/07/07 08:28:59;;;;;;;5.50;4.45;;;;;;;;;;5032852;28;20225;-65
2023/07/07 08:31:27;;;;;;;5.03;4.45;;;;;;;;;;5049663;28;20206;-65
2023/07/07 08:33:54;;;;;;;5.80;4.55;;;;;;;;;;5040403;28;20299;-65
2023/07/07 08:36:28;;;;;;;5.00;4.50;;;;;;;;;;5031860;28;20198;-64
2023/07/07 08:39:00;;;;;;;5.43;4.00;;;;;;;;;;5041891;28;20301;-63
2023/07/07 08:41:28;;;;;;;6.22;4.13;;;;;;;;;;5032023;28;20205;-66
2023/07/07 08:43:56;;;;;;;5.50;4.30;;;;;;;;;;5039033;28;20206;-66
2023/07/07 08:46:37;;;;;;;5.30;4.18;;;;;;;;;;5041912;28;20229;-66
2023/07/07 08:49:04;;;;;;;5.50;4.43;;;;;;;;;;5022535;28;20217;-66
2023/07/07 08:51:35;;;;;;;5.70;4.22;;;;;;;;;;5046980;28;20206;-63
2023/07/07 08:54:03;;;;;;;4.70;4.25;;;;;;;;;;5048517;28;20237;-62
2023/07/07 08:56:46;;;;;;;5.55;4.40;;;;;;;;;;5035533;28;20222;-63
2023/07/07 08:59:19;;;;;;;5.20;4.65;;;;;;;;;;5027983;28;20283;-62
2023/07/07 09:02:05;;;;;;;5.53;4.50;;;;;;;;;;5044432;28;20214;-65
2023/07/07 09:04:38;;;;;;;7.05;4.60;;;;;;;;;;5048312;28;20230;-63
2023/07/07 09:07:24;;;;;;;4.85;4.28;;;;;;;;;;5039934;28;20373;-62
2023/07/07 09:10:00;;;;;;;4.97;4.45;;;;;;;;;;5051637;28;20217;-65
2023/07/07 09:12:36;;;;;;;6.43;4.70;;;;;;;;;;5034498;28;20202;-62
2023/07/07 09:15:05;;;;;;;5.57;4.93;;;;;;;;;;5042483;28;20243;-64
2023/07/07 09:17:38;;;;;;;4.85;4.43;;;;;;;;;;5043829;28;20571;-63
2023/07/07 09:20:07;;;;;;;6.47;4.60;;;;;;;;;;5038316;28;20297;-65
2023/07/07 09:22:39;;;;;;;7.70;4.90;;;;;;;;;;5044343;28;20243;-66
2023/07/07 09:25:18;;;;;;;6.68;4.28;;;;;;;;;;5050585;28;20280;-65
2023/07/07 09:27:50;;;;;;;5.30;4.47;;;;;;;;;;5043871;28;20293;-62
2023/07/07 09:30:25;;;;;;;6.32;4.45;;;;;;;;;;5051048;28;20202;-62
2023/07/07 09:32:52;;;;;;;6.93;4.50;;;;;;;;;;5040999;28;20257;-62
2023/07/07 09:35:21;;;;;;;6.18;5.53;;;;;;;;;;5042872;28;20227;-62
2023/07/07 09:38:03;;;;;;;6.70;5.05;;;;;;;;;;5032447;28;20766;-64
2023/07/07 09:40:37;;;;;;;5.75;5.15;;;;;;;;;;5041854;28;20210;-66
2023/07/07 09:43:36;;;;;;;7.28;5.00;;;;;;;;;;5046259;28;20207;-63
2023/07/07 09:46:28;;;;;;;6.13;4.95;;;;;;;;;;4988274;28;20257;-63
2023/07/07 09:48:59;;;;;;;8.40;5.30;;;;;;;;;;5039471;28;20646;-67
2023/07/07 09:51:39;;;;;;;6.20;5.40;;;;;;;;;;5045325;28;20206;-63
2023/07/07 09:54:11;;;;;;;9.23;5.55;;;;;;;;;;5037512;28;20681;-68
2023/07/07 09:56:42;;;;;;;5.80;5.18;;;;;;;;;;5055118;28;20386;-63
2023/07/07 09:59:18;;;;;;;7.38;5.55;;;;;;;;;;5031201;28;20198;-68
2023/07/07 10:01:48;;;;;;;6.53;5.28;;;;;;;;;;5043600;28;20204;-66
2023/07/07 10:04:16;;;;;;;7.78;4.75;;;;;;;;;;5043760;28;20214;-62
2023/07/07 10:06:51;;;;;;;6.70;4.65;;;;;;;;;;5048062;28;20225;-62
2023/07/07 10:09:18;;;;;;;6.38;4.85;;;;;;;;;;5040216;28;20205;-67
2023/07/07 10:11:46;;;;;;;6.70;5.05;;;;;;;;;;5033209;28;20202;-61
2023/07/07 10:14:33;;;;;;;7.18;5.15;;;;;;;;;;5029735;28;20316;-63
2023/07/07 10:17:01;;;;;;;7.40;5.15;;;;;;;;;;5025598;28;20206;-63
2023/07/07 10:19:28;;;;;;;6.28;5.20;;;;;;;;;;5044363;28;20710;-63
2023/07/07 10:21:55;;;;;;;8.20;5.32;;;;;;;;;;5046907;28;20249;-62
2023/07/07 10:24:23;;;;;;;5.95;5.28;;;;;;;;;;5036934;28;20210;-66
2023/07/07 10:26:51;;;;;;;6.40;5.28;;;;;;;;;;5034554;28;20276;-66
2023/07/07 10:29:23;;;;;;;7.18;5.55;;;;;;;;;;5026025;28;20229;-65
2023/07/07 10:31:51;;;;;;;7.10;5.63;;;;;;;;;;5049915;28;20264;-66
2023/07/07 10:34:24;;;;;;;6.22;5.13;;;;;;;;;;5045223;28;20218;-65
2023/07/07 10:36:55;;;;;;;5.40;4.90;;;;;;;;;;5045319;28;20198;-65
2023/07/07 10:39:23;;;;;;;7.32;5.57;;;;;;;;;;5048029;28;20211;-62
2023/07/07 10:41:50;;;;;;;7.68;5.25;;;;;;;;;;5044674;28;20202;-64
2023/07/07 10:44:18;;;;;;;8.00;5.15;;;;;;;;;;5047918;28;20382;-65
2023/07/07 10:46:45;;;;;;;9.63;5.30;;;;;;;;;;5028643;28;20248;-66
2023/07/07 10:49:15;;;;;;;5.82;4.88;;;;;;;;;;5048955;28;20578;-66
2023/07/07 10:51:52;;;;;;;8.68;5.15;;;;;;;;;;5043001;28;20263;-65
2023/07/07 10:54:42;;;;;;;5.60;5.03;;;;;;;;;;5044686;28;20280;-67
2023/07/07 10:57:24;;;;;;;6.13;4.70;;;;;;;;;;5044451;28;20221;-67
2023/07/07 10:59:58;;;;;;;7.15;4.90;;;;;;;;;;5050070;28;20252;-66
2023/07/07 11:02:44;;;;;;;6.95;4.95;;;;;;;;;;5033566;28;20199;-65
2023/07/07 11:05:12;;;;;;;5.57;4.85;;;;;;;;;;5025683;28;20233;-65
2023/07/07 11:07:40;;;;;;;8.40;5.55;;;;;;;;;;5049254;28;20283;-66
2023/07/07 11:10:10;;;;;;;6.63;5.28;;;;;;;;;;5037435;28;20211;-64
2023/07/07 11:12:44;;;;;;;6.97;5.07;;;;;;;;;;5046208;28;20691;-65
2023/07/07 11:15:29;;;;;;;6.95;5.15;;;;;;;;;;5023582;28;20234;-65
2023/07/07 11:18:02;;;;;;;5.95;4.97;;;;;;;;;;5040305;28;20292;-63
2023/07/07 11:20:36;;;;;;;6.30;5.00;;;;;;;;;;5043956;28;20225;-64
2023/07/07 11:23:13;;;;;;;8.85;5.20;;;;;;;;;;5038664;28;20205;-65
2023/07/07 11:26:04;;;;;;;6.85;4.85;;;;;;;;;;5031666;28;20302;-65
2023/07/07 11:28:44;;;;;;;8.20;5.30;;;;;;;;;;5014743;28;20493;-63
2023/07/07 11:31:11;;;;;;;6.20;5.03;;;;;;;;;;5037772;28;20206;-65
2023/07/07 11:33:51;;;;;;;6.22;5.18;;;;;;;;;;5040100;28;20227;-65
2023/07/07 11:36:32;;;;;;;6.35;5.35;;;;;;;;;;5033218;28;20221;-64
2023/07/07 11:39:09;;;;;;;6.25;4.90;;;;;;;;;;5035650;28;20834;-66
2023/07/07 11:41:53;;;;;;;6.38;4.93;;;;;;;;;;5029465;28;20213;-64
2023/07/07 11:44:20;;;;;;;5.32;4.70;;;;;;;;;;5026578;28;20218;-65
2023/07/07 11:46:59;;;;;;;6.95;5.30;;;;;;;;;;5016695;28;20202;-64
2023/07/07 11:49:26;;;;;;;6.68;5.22;;;;;;;;;;5013920;28;20203;-64
2023/07/07 11:52:12;;;;;;;5.28;4.68;;;;;;;;;;5001954;28;20202;-67
2023/07/07 11:54:48;;;;;;;6.50;5.07;;;;;;;;;;5012257;28;20234;-65
2023/07/07 11:57:35;;;;;;;8.02;5.10;;;;;;;;;;5022058;28;20206;-64
2023/07/07 12:00:06;;;;;;;7.43;5.30;;;;;;;;;;5018331;28;20693;-65
2023/07/07 12:02:37;;;;;;;8.23;5.43;;;;;;;;;;5020937;28;20202;-64
2023/07/07 12:05:07;;;;;;;8.15;4.90;;;;;;;;;;5019591;28;20450;-67
2023/07/07 12:07:39;;;;;;;8.70;4.90;;;;;;;;;;5025760;28;20206;-64
2023/07/07 12:10:15;;;;;;;6.38;4.80;;;;;;;;;;5023727;28;20205;-66
2023/07/07 12:12:55;;;;;;;5.90;4.85;;;;;;;;;;5045453;28;20652;-64
2023/07/07 12:15:25;;;;;;;6.90;5.13;;;;;;;;;;5047436;28;20252;-65
2023/07/07 12:18:00;;;;;;;9.80;5.07;;;;;;;;;;5040224;28;20202;-66
2023/07/07 12:20:30;;;;;;;7.00;5.22;;;;;;;;;;5017020;28;20289;-66
2023/07/07 12:23:07;;;;;;;8.13;5.00;;;;;;;;;;5044998;28;20224;-67
2023/07/07 12:25:34;;;;;;;7.72;5.43;;;;;;;;;;5018036;28;20241;-63
2023/07/07 12:28:02;;;;;;;5.82;4.55;;;;;;;;;;5035651;28;20206;-66
2023/07/07 12:30:31;;;;;;;9.15;5.88;;;;;;;;;;5042932;28;20202;-65
2023/07/07 12:32:59;;;;;;;6.35;5.22;;;;;;;;;;5041875;28;20656;-65
2023/07/07 12:35:28;;;;;;;6.80;4.88;;;;;;;;;;5046465;28;20704;-64
2023/07/07 12:37:56;;;;;;;5.93;4.80;;;;;;;;;;5049046;28;20202;-66
2023/07/07 12:40:24;;;;;;;7.78;4.63;;;;;;;;;;5043966;28;20610;-65
2023/07/07 12:42:59;;;;;;;5.93;4.47;;;;;;;;;;5045874;28;20213;-63
2023/07/07 12:45:31;;;;;;;5.82;4.55;;;;;;;;;;5046697;28;20221;-62
2023/07/07 12:48:04;;;;;;;9.90;4.88;;;;;;;;;;5051257;28;20241;-66
2023/07/07 12:50:36;;;;;;;6.65;4.47;;;;;;;;;;5052437;28;20202;-66
2023/07/07 12:53:05;;;;;;;6.57;4.90;;;;;;;;;;5053613;28;20213;-65
2023/07/07 12:55:36;;;;;;;6.82;4.80;;;;;;;;;;5051995;28;20631;-66
2023/07/07 12:58:06;;;;;;;5.72;4.55;;;;;;;;;;5049647;28;20632;-64
2023/07/07 13:00:44;;;;;;;5.60;4.47;;;;;;;;;;5045313;28;20644;-64
2023/07/07 13:03:19;;;;;;;8.57;4.70;;;;;;;;;;5046163;28;20294;-64
2023/07/07 13:05:50;;;;;;;6.45;4.68;;;;;;;;;;5032538;28;20238;-63
2023/07/07 13:08:37;;;;;;;5.70;4.30;;;;;;;;;;5032452;28;20222;-64
2023/07/07 13:11:05;;;;;;;5.63;4.10;;;;;;;;;;5026779;28;20199;-64
2023/07/07 13:13:37;;;;;;;7.28;4.47;;;;;;;;;;5026983;28;20273;-64
2023/07/07 13:16:09;;;;;;;5.78;4.38;;;;;;;;;;5027418;28;20321;-63
2023/07/07 13:18:37;;;;;;;6.82;4.35;;;;;;;;;;5030677;28;20214;-63
2023/07/07 13:21:05;;;;;;;4.85;4.05;;;;;;;;;;5026196;28;20218;-65
2023/07/07 13:23:35;;;;;;;6.15;4.60;;;;;;;;;;5026207;28;20217;-64
2023/07/07 13:26:02;;;;;;;8.02;4.30;;;;;;;;;;5009065;28;20328;-64
2023/07/07 13:28:30;;;;;;;4.80;4.07;;;;;;;;;;5017325;28;20217;-64
2023/07/07 13:30:58;;;;;;;7.53;4.40;;;;;;;;;;4999706;28;21131;-63
2023/07/07 13:33:27;;;;;;;5.65;4.05;;;;;;;;;;5025054;28;20209;-63
2023/07/07 13:36:01;;;;;;;5.10;4.60;;;;;;;;;;5024965;28;20272;-64
2023/07/07 13:38:33;;;;;;;5.70;4.38;;;;;;;;;;5019763;28;20305;-63
2023/07/07 13:41:02;;;;;;;6.50;4.82;;;;;;;;;;5023020;28;20206;-64
2023/07/07 13:43:35;;;;;;;8.07;4.65;;;;;;;;;;5003148;28;20206;-63
2023/07/07 13:46:09;;;;;;;5.00;4.38;;;;;;;;;;5008347;28;20253;-64
2023/07/07 13:48:42;;;;;;;5.03;4.43;;;;;;;;;;5026384;28;20680;-64
2023/07/07 13:51:13;;;;;;;7.18;5.82;;;;;;;;;;5029311;28;20677;-64
2023/07/07 13:53:41;;;;;;;7.85;4.13;;;;;;;;;;5025084;28;20216;-64
2023/07/07 13:56:09;;;;;;;7.25;5.05;;;;;;;;;;4997541;28;20238;-64
2023/07/07 13:58:41;;;;;;;6.70;4.85;;;;;;;;;;5017235;28;20835;-63
2023/07/07 14:01:26;;;;;;;5.75;4.43;;;;;;;;;;5011522;28;20209;-64
2023/07/07 14:03:56;;;;;;;6.20;4.97;;;;;;;;;;5010500;28;22100;-63
2023/07/07 14:06:24;;;;;;;6.70;4.38;;;;;;;;;;5012879;28;20791;-63
2023/07/07 14:08:52;;;;;;;6.03;4.38;;;;;;;;;;5020625;28;20202;-64
2023/07/07 14:11:24;;;;;;;4.85;4.10;;;;;;;;;;4993636;28;20270;-64
2023/07/07 14:13:59;;;;;;;7.32;4.45;;;;;;;;;;5011087;28;20214;-63
2023/07/07 14:16:29;;;;;;;5.70;4.85;;;;;;;;;;5015038;28;20240;-64
2023/07/07 14:19:00;;;;;;;6.30;4.55;;;;;;;;;;5016021;28;20205;-63
2023/07/07 14:21:29;;;;;;;6.28;4.28;;;;;;;;;;5033431;28;20198;-63
2023/07/07 14:23:59;;;;;;;5.80;4.57;;;;;;;;;;5021001;28;20206;-64
2023/07/07 14:26:28;;;;;;;6.68;4.65;;;;;;;;;;5034168;28;20288;-64
2023/07/07 14:28:56;;;;;;;8.30;4.85;;;;;;;;;;5029692;28;20210;-64
2023/07/07 14:31:25;;;;;;;5.88;4.50;;;;;;;;;;5026946;28;20206;-64
2023/07/07 14:34:02;;;;;;;7.28;4.43;;;;;;;;;;5012194;28;20206;-63
2023/07/07 14:36:31;;;;;;;6.95;4.78;;;;;;;;;;5031222;28;20257;-64
2023/07/07 14:39:04;;;;;;;7.32;4.93;;;;;;;;;;5037467;28;20210;-63
2023/07/07 14:41:35;;;;;;;9.80;4.70;;;;;;;;;;5033057;28;20218;-64
2023/07/07 14:44:03;;;;;;;6.00;4.53;;;;;;;;;;5016153;28;20201;-63
2023/07/07 14:46:36;;;;;;;5.43;4.07;;;;;;;;;;5032004;28;20230;-64
2023/07/07 14:49:14;;;;;;;6.53;4.50;;;;;;;;;;5038616;28;20206;-64
2023/07/07 14:51:43;;;;;;;6.70;4.53;;;;;;;;;;5026465;28;20206;-64
2023/07/07 14:54:13;;;;;;;7.10;4.57;;;;;;;;;;5020183;28;20275;-62
2023/07/07 14:56:44;;;;;;;6.75;4.55;;;;;;;;;;5032885;28;20727;-62
2023/07/07 14:59:17;;;;;;;6.25;4.50;;;;;;;;;;5008726;28;20292;-65
2023/07/07 15:01:53;;;;;;;5.90;4.40;;;;;;;;;;5000641;28;20299;-62
2023/07/07 15:04:23;;;;;;;7.38;4.50;;;;;;;;;;4995659;28;20211;-68